Terminal Aerodrome Forecast
Issued by NWS

Home | Current Version | Previous Version | Text Only | Print | Product List | Glossary On
Versions: 1 2 3 4 5 6 7 8 9 10 11 12 13 14
000
FTUS44 KLZK 241600 AAB
TAFBPK
TAF AMD
KBPK 241635Z 2417/2512 17012G22KT P6SM VCSH SCT025 BKN040
      TEMPO 2417/2419 4SM -SHRA BR BKN025 OVC040
     FM241900 16013G23KT P6SM VCSH SCT025 OVC050
      TEMPO 2419/2421 5SM -TSRA BR BKN025CB OVC040
     FM242100 16015G25KT P6SM VCTS BKN040CB OVC080
      TEMPO 2421/2424 4SM -TSRA BR OVC015CB
     FM250000 17012G22KT 6SM -TSRA BR OVC025CB
     FM250800 17008KT P6SM -RA VCTS BKN025CB OVC050=

USA.gov is the U.S. government's official web portal to all federal, state and local government web resources and services.